PWSweather.com
Personal Weather Stations
Station Observations
EA5BZ
Nuevo Altabix, ElcheES

Nuevo AltabixElcheES

Lat: 38.276, Lon: -0.671

Elevation: 0

Station Type: Davis Vantage Pro 2

http://meteoelche.es

High Low Average
Temperature 66.5°F19.2°C 54.5°F12.5°C 60.8°F16.0°C
Dew Point 54.0°F12.2°C 35.8°F2.1°C 47.6°F8.7°C
Winds 15.2 mph 24.5 kmh 2.0 mph 3.2 kmh 6.0 mph SW9.7 kmh SW
Wind Gusts 23.5 mph37.8 kmh 3.6 mph5.8 kmh 9.0 mph14.5 kmh
Humidity 80% 40% 63%
Pressure 30.41 in1029.8 mb 30.30 in1026.1 mb -
Precipitation 0.00 in0.0 mm - -
Hour Temp Dew Point Humidity Winds Wind Gusts Pressure Precip Precip Rate Daily Precip Total
12:00 AM 63.9°F17.7°C 43.8°F6.6°C 48% 11.2 mph WSW18.0 kmh WSW 22.4 mph36.0 kmh 30.33 in1027.1 mb 0.00 in0.0 mm 0.00 in0.0 mm 0.00 in0.0 mm
12:05 AM 64.0°F17.8°C 43.9°F6.6°C 48% 11.9 mph WSW19.2 kmh WSW 23.5 mph37.8 kmh 30.33 in1027.1 mb 0.00 in0.0 mm 0.00 in0.0 mm 0.00 in0.0 mm
12:10 AM 64.0°F17.8°C 43.9°F6.6°C 48% 13.6 mph WSW21.9 kmh WSW 22.4 mph36.0 kmh 30.33 in1027.1 mb 0.00 in0.0 mm 0.00 in0.0 mm 0.00 in0.0 mm
12:15 AM 64.0°F17.8°C 43.9°F6.6°C 48% 14.1 mph WSW22.7 kmh WSW 19.0 mph30.6 kmh 30.33 in1027.1 mb 0.00 in0.0 mm 0.00 in0.0 mm 0.00 in0.0 mm
12:20 AM 63.9°F17.7°C 43.8°F6.6°C 48% 15.2 mph W24.5 kmh W 17.9 mph28.8 kmh 30.33 in1027.1 mb 0.00 in0.0 mm 0.00 in0.0 mm 0.00 in0.0 mm
12:25 AM 63.6°F17.6°C 43.6°F6.4°C 48% 14.4 mph W23.2 kmh W 18.6 mph29.9 kmh 30.33 in1027.1 mb 0.00 in0.0 mm 0.00 in0.0 mm 0.00 in0.0 mm
12:30 AM 63.4°F17.4°C 43.3°F6.3°C 48% 12.5 mph WSW20.1 kmh WSW 16.8 mph27.0 kmh 30.33 in1027.1 mb 0.00 in0.0 mm 0.00 in0.0 mm 0.00 in0.0 mm
12:35 AM 63.3°F17.4°C 43.3°F6.3°C 48% 11.7 mph WSW18.8 kmh WSW 15.9 mph25.6 kmh 30.33 in1027.1 mb 0.00 in0.0 mm 0.00 in0.0 mm 0.00 in0.0 mm
12:40 AM 63.3°F17.4°C 43.3°F6.3°C 48% 9.6 mph W15.4 kmh W 10.7 mph17.2 kmh 30.34 in1027.4 mb 0.00 in0.0 mm 0.00 in0.0 mm 0.00 in0.0 mm
12:45 AM 63.1°F17.3°C 43.1°F6.2°C 48% 9.0 mph W14.5 kmh W 11.9 mph19.2 kmh 30.34 in1027.4 mb 0.00 in0.0 mm 0.00 in0.0 mm 0.00 in0.0 mm
12:50 AM 63.1°F17.3°C 43.1°F6.2°C 48% 7.6 mph W12.2 kmh W 13.4 mph21.6 kmh 30.34 in1027.4 mb 0.00 in0.0 mm 0.00 in0.0 mm 0.00 in0.0 mm
12:55 AM 63.0°F17.2°C 43.0°F6.1°C 48% 7.3 mph W11.7 kmh W 11.9 mph19.2 kmh 30.34 in1027.4 mb 0.00 in0.0 mm 0.00 in0.0 mm 0.00 in0.0 mm
01:00 AM 63.0°F17.2°C 43.0°F6.1°C 48% 6.5 mph W10.5 kmh W 11.2 mph18.0 kmh 30.34 in1027.4 mb 0.00 in0.0 mm 0.00 in0.0 mm 0.00 in0.0 mm
01:05 AM 62.8°F17.1°C 42.8°F6.0°C 48% 6.6 mph W10.6 kmh W 14.1 mph22.7 kmh 30.34 in1027.4 mb 0.00 in0.0 mm 0.00 in0.0 mm 0.00 in0.0 mm
01:10 AM 62.6°F17.0°C 42.6°F5.9°C 48% 6.9 mph WSW11.1 kmh WSW 15.2 mph24.5 kmh 30.33 in1027.1 mb 0.00 in0.0 mm 0.00 in0.0 mm 0.00 in0.0 mm
01:15 AM 62.4°F16.9°C 42.5°F5.8°C 48% 7.4 mph W11.9 kmh W 14.5 mph23.3 kmh 30.33 in1027.1 mb 0.00 in0.0 mm 0.00 in0.0 mm 0.00 in0.0 mm
01:20 AM 62.4°F16.9°C 42.1°F5.6°C 47% 8.5 mph W13.7 kmh W 15.2 mph24.5 kmh 30.33 in1027.1 mb 0.00 in0.0 mm 0.00 in0.0 mm 0.00 in0.0 mm
01:25 AM 62.4°F16.9°C 41.9°F5.5°C 47% 8.6 mph W13.8 kmh W 14.5 mph23.3 kmh 30.33 in1027.1 mb 0.00 in0.0 mm 0.00 in0.0 mm 0.00 in0.0 mm
01:30 AM 62.5°F16.9°C 41.4°F5.2°C 46% 8.7 mph W14.0 kmh W 15.7 mph25.3 kmh 30.33 in1027.1 mb 0.00 in0.0 mm 0.00 in0.0 mm 0.00 in0.0 mm
01:35 AM 62.6°F17.0°C 41.5°F5.3°C 46% 8.5 mph W13.7 kmh W 13.6 mph21.9 kmh 30.33 in1027.1 mb 0.00 in0.0 mm 0.00 in0.0 mm 0.00 in0.0 mm
01:40 AM 62.8°F17.1°C 41.1°F5.1°C 45% 8.1 mph W13.0 kmh W 18.6 mph29.9 kmh 30.32 in1026.8 mb 0.00 in0.0 mm 0.00 in0.0 mm 0.00 in0.0 mm
01:45 AM 62.8°F17.1°C 41.0°F5.0°C 45% 8.2 mph W13.2 kmh W 14.8 mph23.8 kmh 30.32 in1026.8 mb 0.00 in0.0 mm 0.00 in0.0 mm 0.00 in0.0 mm
01:50 AM 62.8°F17.1°C 40.6°F4.8°C 44% 8.5 mph W13.7 kmh W 16.3 mph26.2 kmh 30.32 in1026.8 mb 0.00 in0.0 mm 0.00 in0.0 mm 0.00 in0.0 mm
01:55 AM 63.0°F17.2°C 40.4°F4.7°C 44% 9.0 mph W14.5 kmh W 16.8 mph27.0 kmh 30.32 in1026.8 mb 0.00 in0.0 mm 0.00 in0.0 mm 0.00 in0.0 mm
02:00 AM 63.1°F17.3°C 40.2°F4.6°C 43% 10.1 mph WNW16.3 kmh WNW 18.1 mph29.1 kmh 30.32 in1026.8 mb 0.00 in0.0 mm 0.00 in0.0 mm 0.00 in0.0 mm
02:05 AM 63.1°F17.3°C 39.7°F4.3°C 42% 10.3 mph WNW16.6 kmh WNW 19.0 mph30.6 kmh 30.32 in1026.8 mb 0.00 in0.0 mm 0.00 in0.0 mm 0.00 in0.0 mm
02:10 AM 63.3°F17.4°C 39.3°F4.1°C 41% 10.7 mph WNW17.2 kmh WNW 19.0 mph30.6 kmh 30.32 in1026.8 mb 0.00 in0.0 mm 0.00 in0.0 mm 0.00 in0.0 mm
02:15 AM 63.6°F17.6°C 39.4°F4.1°C 41% 10.4 mph WNW16.7 kmh WNW 18.1 mph29.1 kmh 30.32 in1026.8 mb 0.00 in0.0 mm 0.00 in0.0 mm 0.00 in0.0 mm
02:20 AM 63.7°F17.6°C 39.5°F4.2°C 41% 9.6 mph W15.4 kmh W 19.7 mph31.7 kmh 30.32 in1026.8 mb 0.00 in0.0 mm 0.00 in0.0 mm 0.00 in0.0 mm
02:25 AM 63.6°F17.6°C 39.5°F4.2°C 41% 10.3 mph W16.6 kmh W 21.9 mph35.2 kmh 30.32 in1026.8 mb 0.00 in0.0 mm 0.00 in0.0 mm 0.00 in0.0 mm
02:30 AM 63.5°F17.5°C 39.3°F4.1°C 41% 11.9 mph W19.2 kmh W 21.3 mph34.3 kmh 30.32 in1026.8 mb 0.00 in0.0 mm 0.00 in0.0 mm 0.00 in0.0 mm
02:35 AM 63.3°F17.4°C 39.2°F4.0°C 41% 12.0 mph W19.3 kmh W 18.1 mph29.1 kmh 30.32 in1026.8 mb 0.00 in0.0 mm 0.00 in0.0 mm 0.00 in0.0 mm
02:40 AM 63.2°F17.3°C 39.3°F4.1°C 41% 12.3 mph W19.8 kmh W 18.6 mph29.9 kmh 30.32 in1026.8 mb 0.00 in0.0 mm 0.00 in0.0 mm 0.00 in0.0 mm
02:45 AM 62.9°F17.2°C 39.4°F4.1°C 42% 12.2 mph W19.6 kmh W 15.9 mph25.6 kmh 30.32 in1026.8 mb 0.00 in0.0 mm 0.00 in0.0 mm 0.00 in0.0 mm
02:50 AM 62.8°F17.1°C 38.9°F3.8°C 41% 11.9 mph W19.2 kmh W 15.7 mph25.3 kmh 30.32 in1026.8 mb 0.00 in0.0 mm 0.00 in0.0 mm 0.00 in0.0 mm
02:55 AM 62.8°F17.1°C 38.7°F3.7°C 41% 10.9 mph W17.5 kmh W 18.1 mph29.1 kmh 30.33 in1027.1 mb 0.00 in0.0 mm 0.00 in0.0 mm 0.00 in0.0 mm
03:00 AM 62.8°F17.1°C 38.7°F3.7°C 41% 8.5 mph W13.7 kmh W 14.8 mph23.8 kmh 30.33 in1027.1 mb 0.00 in0.0 mm 0.00 in0.0 mm 0.00 in0.0 mm
03:05 AM 62.8°F17.1°C 38.7°F3.7°C 41% 8.5 mph W13.7 kmh W 15.7 mph25.3 kmh 30.33 in1027.1 mb 0.00 in0.0 mm 0.00 in0.0 mm 0.00 in0.0 mm
03:10 AM 62.8°F17.1°C 38.7°F3.7°C 41% 8.5 mph W13.7 kmh W 13.4 mph21.6 kmh 30.33 in1027.1 mb 0.00 in0.0 mm 0.00 in0.0 mm 0.00 in0.0 mm
03:15 AM 62.7°F17.1°C 38.1°F3.4°C 40% 8.1 mph W13.0 kmh W 14.5 mph23.3 kmh 30.33 in1027.1 mb 0.00 in0.0 mm 0.00 in0.0 mm 0.00 in0.0 mm
03:20 AM 62.5°F16.9°C 38.1°F3.4°C 40% 6.9 mph W11.1 kmh W 17.0 mph27.4 kmh 30.33 in1027.1 mb 0.00 in0.0 mm 0.00 in0.0 mm 0.00 in0.0 mm
03:25 AM 62.4°F16.9°C 38.4°F3.6°C 41% 7.6 mph W12.2 kmh W 16.3 mph26.2 kmh 30.33 in1027.1 mb 0.00 in0.0 mm 0.00 in0.0 mm 0.00 in0.0 mm
03:30 AM 62.3°F16.8°C 38.3°F3.5°C 41% 9.2 mph W14.8 kmh W 17.0 mph27.4 kmh 30.33 in1027.1 mb 0.00 in0.0 mm 0.00 in0.0 mm 0.00 in0.0 mm
03:35 AM 62.0°F16.7°C 38.5°F3.6°C 42% 9.4 mph W15.1 kmh W 15.2 mph24.5 kmh 30.33 in1027.1 mb 0.00 in0.0 mm 0.00 in0.0 mm 0.00 in0.0 mm
03:40 AM 61.6°F16.4°C 38.3°F3.5°C 42% 10.1 mph W16.3 kmh W 17.4 mph28.0 kmh 30.33 in1027.1 mb 0.00 in0.0 mm 0.00 in0.0 mm 0.00 in0.0 mm
03:45 AM 61.4°F16.3°C 38.1°F3.4°C 42% 9.6 mph W15.4 kmh W 13.0 mph20.9 kmh 30.32 in1026.8 mb 0.00 in0.0 mm 0.00 in0.0 mm 0.00 in0.0 mm
03:50 AM 61.3°F16.3°C 37.6°F3.1°C 41% 8.5 mph W13.7 kmh W 14.1 mph22.7 kmh 30.32 in1026.8 mb 0.00 in0.0 mm 0.00 in0.0 mm 0.00 in0.0 mm
03:55 AM 61.2°F16.2°C 37.3°F2.9°C 41% 7.9 mph W12.7 kmh W 8.7 mph14.0 kmh 30.32 in1026.8 mb 0.00 in0.0 mm 0.00 in0.0 mm 0.00 in0.0 mm
04:00 AM 61.2°F16.2°C 37.4°F3.0°C 41% 6.5 mph W10.5 kmh W 11.9 mph19.2 kmh 30.32 in1026.8 mb 0.00 in0.0 mm 0.00 in0.0 mm 0.00 in0.0 mm
04:05 AM 61.0°F16.1°C 37.7°F3.2°C 42% 6.8 mph W10.9 kmh W 13.4 mph21.6 kmh 30.32 in1026.8 mb 0.00 in0.0 mm 0.00 in0.0 mm 0.00 in0.0 mm
04:10 AM 60.6°F15.9°C 37.4°F3.0°C 42% 7.6 mph WSW12.2 kmh WSW 15.2 mph24.5 kmh 30.32 in1026.8 mb 0.00 in0.0 mm 0.00 in0.0 mm 0.00 in0.0 mm
04:15 AM 60.4°F15.8°C 37.2°F2.9°C 42% 8.4 mph WSW13.5 kmh WSW 17.9 mph28.8 kmh 30.32 in1026.8 mb 0.00 in0.0 mm 0.00 in0.0 mm 0.00 in0.0 mm
04:20 AM 60.3°F15.7°C 37.7°F3.2°C 43% 10.3 mph WSW16.6 kmh WSW 14.8 mph23.8 kmh 30.32 in1026.8 mb 0.00 in0.0 mm 0.00 in0.0 mm 0.00 in0.0 mm
04:25 AM 60.2°F15.7°C 37.6°F3.1°C 43% 10.2 mph WSW16.4 kmh WSW 13.4 mph21.6 kmh 30.32 in1026.8 mb 0.00 in0.0 mm 0.00 in0.0 mm 0.00 in0.0 mm
04:30 AM 60.0°F15.6°C 37.4°F3.0°C 43% 10.1 mph WSW16.3 kmh WSW 15.2 mph24.5 kmh 30.32 in1026.8 mb 0.00 in0.0 mm 0.00 in0.0 mm 0.00 in0.0 mm
04:35 AM 59.7°F15.4°C 37.2°F2.9°C 43% 10.1 mph WSW16.3 kmh WSW 14.5 mph23.3 kmh 30.32 in1026.8 mb 0.00 in0.0 mm 0.00 in0.0 mm 0.00 in0.0 mm
04:40 AM 59.7°F15.4°C 37.2°F2.9°C 43% 10.3 mph WSW16.6 kmh WSW 12.3 mph19.8 kmh 30.33 in1027.1 mb 0.00 in0.0 mm 0.00 in0.0 mm 0.00 in0.0 mm
04:45 AM 59.6°F15.3°C 37.1°F2.8°C 43% 9.8 mph WSW15.8 kmh WSW 12.3 mph19.8 kmh 30.33 in1027.1 mb 0.00 in0.0 mm 0.00 in0.0 mm 0.00 in0.0 mm
04:50 AM 59.5°F15.3°C 36.6°F2.6°C 42% 8.5 mph WSW13.7 kmh WSW 10.3 mph16.6 kmh 30.33 in1027.1 mb 0.00 in0.0 mm 0.00 in0.0 mm 0.00 in0.0 mm
04:55 AM 59.7°F15.4°C 36.2°F2.3°C 41% 8.2 mph WSW13.2 kmh WSW 11.9 mph19.2 kmh 30.33 in1027.1 mb 0.00 in0.0 mm 0.00 in0.0 mm 0.00 in0.0 mm
05:00 AM 59.8°F15.4°C 36.1°F2.3°C 41% 7.6 mph W12.2 kmh W 11.9 mph19.2 kmh 30.33 in1027.1 mb 0.00 in0.0 mm 0.00 in0.0 mm 0.00 in0.0 mm
05:05 AM 59.9°F15.5°C 36.2°F2.3°C 41% 7.6 mph W12.2 kmh W 10.3 mph16.6 kmh 30.33 in1027.1 mb 0.00 in0.0 mm 0.00 in0.0 mm 0.00 in0.0 mm
05:10 AM 60.1°F15.6°C 35.9°F2.2°C 40% 7.6 mph W12.2 kmh W 13.6 mph21.9 kmh 30.33 in1027.1 mb 0.00 in0.0 mm 0.00 in0.0 mm 0.00 in0.0 mm
05:15 AM 59.6°F15.3°C 35.9°F2.2°C 41% 7.9 mph WNW12.7 kmh WNW 17.4 mph28.0 kmh 30.33 in1027.1 mb 0.00 in0.0 mm 0.00 in0.0 mm 0.00 in0.0 mm
05:20 AM 58.8°F14.9°C 36.0°F2.2°C 42% 8.5 mph NNW13.7 kmh NNW 8.5 mph13.7 kmh 30.33 in1027.1 mb 0.00 in0.0 mm 0.00 in0.0 mm 0.00 in0.0 mm
05:25 AM 58.2°F14.6°C 36.2°F2.3°C 44% 7.6 mph N12.2 kmh N 9.2 mph14.8 kmh 30.34 in1027.4 mb 0.00 in0.0 mm 0.00 in0.0 mm 0.00 in0.0 mm
05:30 AM 57.9°F14.4°C 36.2°F2.3°C 44% 5.4 mph ENE8.7 kmh ENE 8.7 mph14.0 kmh 30.34 in1027.4 mb 0.00 in0.0 mm 0.00 in0.0 mm 0.00 in0.0 mm
05:35 AM 58.1°F14.5°C 35.8°F2.1°C 43% 5.7 mph NE9.2 kmh NE 10.3 mph16.6 kmh 30.34 in1027.4 mb 0.00 in0.0 mm 0.00 in0.0 mm 0.00 in0.0 mm
05:40 AM 58.5°F14.7°C 35.9°F2.2°C 43% 6.5 mph N10.5 kmh N 10.3 mph16.6 kmh 30.34 in1027.4 mb 0.00 in0.0 mm 0.00 in0.0 mm 0.00 in0.0 mm
05:45 AM 58.6°F14.8°C 36.0°F2.2°C 43% 6.6 mph N10.6 kmh N 8.7 mph14.0 kmh 30.34 in1027.4 mb 0.00 in0.0 mm 0.00 in0.0 mm 0.00 in0.0 mm
05:50 AM 58.8°F14.9°C 37.2°F2.9°C 44% 6.9 mph NNW11.1 kmh NNW 8.5 mph13.7 kmh 30.34 in1027.4 mb 0.00 in0.0 mm 0.00 in0.0 mm 0.00 in0.0 mm
05:55 AM 58.9°F14.9°C 38.5°F3.6°C 47% 6.8 mph NNW10.9 kmh NNW 8.7 mph14.0 kmh 30.34 in1027.4 mb 0.00 in0.0 mm 0.00 in0.0 mm 0.00 in0.0 mm
06:00 AM 59.3°F15.2°C 41.0°F5.0°C 51% 6.5 mph NNW10.5 kmh NNW 8.7 mph14.0 kmh 30.34 in1027.4 mb 0.00 in0.0 mm 0.00 in0.0 mm 0.00 in0.0 mm
06:05 AM 59.5°F15.3°C 42.6°F5.9°C 53% 6.5 mph NNW10.5 kmh NNW 9.2 mph14.8 kmh 30.34 in1027.4 mb 0.00 in0.0 mm 0.00 in0.0 mm 0.00 in0.0 mm
06:10 AM 59.6°F15.3°C 43.9°F6.6°C 56% 6.5 mph N10.5 kmh N 9.2 mph14.8 kmh 30.34 in1027.4 mb 0.00 in0.0 mm 0.00 in0.0 mm 0.00 in0.0 mm
06:15 AM 59.7°F15.4°C 44.7°F7.1°C 58% 6.5 mph N10.5 kmh N 8.7 mph14.0 kmh 30.34 in1027.4 mb 0.00 in0.0 mm 0.00 in0.0 mm 0.00 in0.0 mm
06:20 AM 59.6°F15.3°C 44.7°F7.1°C 58% 6.5 mph N10.5 kmh N 6.9 mph11.1 kmh 30.34 in1027.4 mb 0.00 in0.0 mm 0.00 in0.0 mm 0.00 in0.0 mm
06:25 AM 59.5°F15.3°C 44.7°F7.1°C 58% 6.1 mph N9.8 kmh N 7.6 mph12.2 kmh 30.35 in1027.8 mb 0.00 in0.0 mm 0.00 in0.0 mm 0.00 in0.0 mm
06:30 AM 59.2°F15.1°C 44.5°F6.9°C 58% 5.1 mph N8.2 kmh N 8.5 mph13.7 kmh 30.35 in1027.8 mb 0.00 in0.0 mm 0.00 in0.0 mm 0.00 in0.0 mm
06:35 AM 58.8°F14.9°C 44.0°F6.7°C 58% 5.5 mph NNW8.9 kmh NNW 7.6 mph12.2 kmh 30.35 in1027.8 mb 0.00 in0.0 mm 0.00 in0.0 mm 0.00 in0.0 mm
06:40 AM 58.5°F14.7°C 43.9°F6.6°C 58% 6.3 mph NW10.1 kmh NW 8.5 mph13.7 kmh 30.35 in1027.8 mb 0.00 in0.0 mm 0.00 in0.0 mm 0.00 in0.0 mm
06:45 AM 58.2°F14.6°C 44.0°F6.7°C 59% 6.3 mph NW10.1 kmh NW 8.5 mph13.7 kmh 30.35 in1027.8 mb 0.00 in0.0 mm 0.00 in0.0 mm 0.00 in0.0 mm
06:50 AM 57.9°F14.4°C 44.1°F6.7°C 60% 6.3 mph NW10.1 kmh NW 8.1 mph13.0 kmh 30.35 in1027.8 mb 0.00 in0.0 mm 0.00 in0.0 mm 0.00 in0.0 mm
06:55 AM 57.7°F14.3°C 44.3°F6.8°C 61% 6.0 mph NW9.7 kmh NW 7.6 mph12.2 kmh 30.36 in1028.1 mb 0.00 in0.0 mm 0.00 in0.0 mm 0.00 in0.0 mm
07:00 AM 57.5°F14.2°C 44.5°F6.9°C 62% 5.4 mph NW8.7 kmh NW 6.9 mph11.1 kmh 30.36 in1028.1 mb 0.00 in0.0 mm 0.00 in0.0 mm 0.00 in0.0 mm
07:05 AM 57.3°F14.1°C 44.5°F6.9°C 62% 5.4 mph NW8.7 kmh NW 8.5 mph13.7 kmh 30.36 in1028.1 mb 0.00 in0.0 mm 0.00 in0.0 mm 0.00 in0.0 mm
07:10 AM 57.1°F13.9°C 44.6°F7.0°C 63% 5.4 mph NW8.7 kmh NW 7.4 mph11.9 kmh 30.36 in1028.1 mb 0.00 in0.0 mm 0.00 in0.0 mm 0.00 in0.0 mm
07:15 AM 56.9°F13.8°C 44.5°F6.9°C 63% 5.2 mph NW8.4 kmh NW 7.6 mph12.2 kmh 30.36 in1028.1 mb 0.00 in0.0 mm 0.00 in0.0 mm 0.00 in0.0 mm
07:20 AM 56.8°F13.8°C 45.2°F7.3°C 65% 4.7 mph NW7.6 kmh NW 8.7 mph14.0 kmh 30.36 in1028.1 mb 0.00 in0.0 mm 0.00 in0.0 mm 0.00 in0.0 mm
07:25 AM 56.9°F13.8°C 46.3°F7.9°C 68% 5.0 mph NW8.0 kmh NW 8.7 mph14.0 kmh 30.36 in1028.1 mb 0.00 in0.0 mm 0.00 in0.0 mm 0.00 in0.0 mm
07:30 AM 57.0°F13.9°C 47.2°F8.4°C 70% 5.8 mph NW9.3 kmh NW 10.3 mph16.6 kmh 30.37 in1028.4 mb 0.00 in0.0 mm 0.00 in0.0 mm 0.00 in0.0 mm
07:35 AM 57.3°F14.1°C 48.4°F9.1°C 72% 5.9 mph NW9.5 kmh NW 9.6 mph15.4 kmh 30.37 in1028.4 mb 0.00 in0.0 mm 0.00 in0.0 mm 0.00 in0.0 mm
07:40 AM 57.5°F14.2°C 48.7°F9.3°C 72% 6.3 mph NNW10.1 kmh NNW 7.6 mph12.2 kmh 30.37 in1028.4 mb 0.00 in0.0 mm 0.00 in0.0 mm 0.00 in0.0 mm
07:45 AM 57.6°F14.2°C 49.0°F9.4°C 73% 5.9 mph NNW9.5 kmh NNW 8.5 mph13.7 kmh 30.37 in1028.4 mb 0.00 in0.0 mm 0.00 in0.0 mm 0.00 in0.0 mm
07:50 AM 57.5°F14.2°C 48.6°F9.2°C 72% 5.1 mph NW8.2 kmh NW 6.5 mph10.5 kmh 30.37 in1028.4 mb 0.00 in0.0 mm 0.00 in0.0 mm 0.00 in0.0 mm
07:55 AM 57.2°F14.0°C 47.5°F8.6°C 70% 4.9 mph NW7.9 kmh NW 6.3 mph10.1 kmh 30.37 in1028.4 mb 0.00 in0.0 mm 0.00 in0.0 mm 0.00 in0.0 mm
08:00 AM 56.7°F13.7°C 46.2°F7.9°C 68% 4.3 mph WNW6.9 kmh WNW 6.5 mph10.5 kmh 30.38 in1028.8 mb 0.00 in0.0 mm 0.00 in0.0 mm 0.00 in0.0 mm
08:05 AM 56.1°F13.4°C 44.8°F7.1°C 66% 4.5 mph W7.2 kmh W 6.5 mph10.5 kmh 30.38 in1028.8 mb 0.00 in0.0 mm 0.00 in0.0 mm 0.00 in0.0 mm
08:10 AM 55.8°F13.2°C 44.2°F6.8°C 65% 5.1 mph W8.2 kmh W 5.8 mph9.3 kmh 30.38 in1028.8 mb 0.00 in0.0 mm 0.00 in0.0 mm 0.00 in0.0 mm
08:15 AM 55.6°F13.1°C 44.6°F7.0°C 67% 5.0 mph W8.0 kmh W 5.4 mph8.7 kmh 30.38 in1028.8 mb 0.00 in0.0 mm 0.00 in0.0 mm 0.00 in0.0 mm
08:20 AM 55.6°F13.1°C 44.4°F6.9°C 66% 4.7 mph W7.6 kmh W 5.4 mph8.7 kmh 30.38 in1028.8 mb 0.00 in0.0 mm 0.00 in0.0 mm 0.00 in0.0 mm
08:25 AM 55.7°F13.2°C 45.0°F7.2°C 67% 4.6 mph WNW7.4 kmh WNW 6.5 mph10.5 kmh 30.38 in1028.8 mb 0.00 in0.0 mm 0.00 in0.0 mm 0.00 in0.0 mm
08:30 AM 56.0°F13.3°C 46.5°F8.1°C 70% 4.3 mph WNW6.9 kmh WNW 9.6 mph15.4 kmh 30.38 in1028.8 mb 0.00 in0.0 mm 0.00 in0.0 mm 0.00 in0.0 mm
08:35 AM 56.4°F13.6°C 47.7°F8.7°C 73% 4.6 mph NW7.4 kmh NW 8.5 mph13.7 kmh 30.38 in1028.8 mb 0.00 in0.0 mm 0.00 in0.0 mm 0.00 in0.0 mm
08:40 AM 57.0°F13.9°C 49.4°F9.7°C 76% 5.4 mph NW8.7 kmh NW 8.1 mph13.0 kmh 30.38 in1028.8 mb 0.00 in0.0 mm 0.00 in0.0 mm 0.00 in0.0 mm
08:45 AM 57.5°F14.2°C 50.1°F10.1°C 76% 5.3 mph NW8.5 kmh NW 6.9 mph11.1 kmh 30.38 in1028.8 mb 0.00 in0.0 mm 0.00 in0.0 mm 0.00 in0.0 mm
08:50 AM 57.7°F14.3°C 50.0°F10.0°C 75% 5.1 mph NNW8.2 kmh NNW 7.6 mph12.2 kmh 30.38 in1028.8 mb 0.00 in0.0 mm 0.00 in0.0 mm 0.00 in0.0 mm
08:55 AM 57.8°F14.3°C 49.7°F9.8°C 74% 4.9 mph NNW7.9 kmh NNW 5.4 mph8.7 kmh 30.39 in1029.1 mb 0.00 in0.0 mm 0.00 in0.0 mm 0.00 in0.0 mm
09:00 AM 58.0°F14.4°C 50.0°F10.0°C 75% 4.3 mph NW6.9 kmh NW 7.4 mph11.9 kmh 30.39 in1029.1 mb 0.00 in0.0 mm 0.00 in0.0 mm 0.00 in0.0 mm
09:05 AM 58.3°F14.6°C 50.1°F10.1°C 74% 4.3 mph NW6.9 kmh NW 6.3 mph10.1 kmh 30.39 in1029.1 mb 0.00 in0.0 mm 0.00 in0.0 mm 0.00 in0.0 mm
09:10 AM 58.5°F14.7°C 50.0°F10.0°C 73% 4.3 mph NW6.9 kmh NW 5.1 mph8.2 kmh 30.39 in1029.1 mb 0.00 in0.0 mm 0.00 in0.0 mm 0.00 in0.0 mm
09:15 AM 58.5°F14.7°C 49.9°F9.9°C 73% 4.1 mph NW6.6 kmh NW 5.4 mph8.7 kmh 30.39 in1029.1 mb 0.00 in0.0 mm 0.00 in0.0 mm 0.00 in0.0 mm
09:20 AM 58.7°F14.8°C 50.0°F10.0°C 73% 3.6 mph NW5.8 kmh NW 6.5 mph10.5 kmh 30.39 in1029.1 mb 0.00 in0.0 mm 0.00 in0.0 mm 0.00 in0.0 mm
09:25 AM 59.0°F15.0°C 50.2°F10.1°C 73% 3.7 mph NW6.0 kmh NW 5.1 mph8.2 kmh 30.39 in1029.1 mb 0.00 in0.0 mm 0.00 in0.0 mm 0.00 in0.0 mm
09:30 AM 59.4°F15.2°C 50.3°F10.2°C 72% 4.0 mph NW6.4 kmh NW 5.8 mph9.3 kmh 30.39 in1029.1 mb 0.00 in0.0 mm 0.00 in0.0 mm 0.00 in0.0 mm
09:35 AM 59.9°F15.5°C 50.4°F10.2°C 71% 3.8 mph NW6.1 kmh NW 5.4 mph8.7 kmh 30.39 in1029.1 mb 0.00 in0.0 mm 0.00 in0.0 mm 0.00 in0.0 mm
09:40 AM 60.5°F15.8°C 50.4°F10.2°C 69% 3.1 mph NW5.0 kmh NW 5.1 mph8.2 kmh 30.40 in1029.5 mb 0.00 in0.0 mm 0.00 in0.0 mm 0.00 in0.0 mm
09:45 AM 61.2°F16.2°C 50.2°F10.1°C 67% 3.4 mph WNW5.5 kmh WNW 5.4 mph8.7 kmh 30.40 in1029.5 mb 0.00 in0.0 mm 0.00 in0.0 mm 0.00 in0.0 mm
09:50 AM 61.8°F16.6°C 49.5°F9.7°C 64% 4.0 mph WNW6.4 kmh WNW 6.3 mph10.1 kmh 30.40 in1029.5 mb 0.00 in0.0 mm 0.00 in0.0 mm 0.00 in0.0 mm
09:55 AM 62.3°F16.8°C 48.8°F9.3°C 61% 4.1 mph W6.6 kmh W 6.5 mph10.5 kmh 30.40 in1029.5 mb 0.00 in0.0 mm 0.00 in0.0 mm 0.00 in0.0 mm
10:00 AM 62.7°F17.1°C 47.9°F8.8°C 58% 4.3 mph WSW6.9 kmh WSW 7.6 mph12.2 kmh 30.40 in1029.5 mb 0.00 in0.0 mm 0.00 in0.0 mm 0.00 in0.0 mm
10:05 AM 62.9°F17.2°C 47.9°F8.8°C 58% 4.5 mph WSW7.2 kmh WSW 7.4 mph11.9 kmh 30.40 in1029.5 mb 0.00 in0.0 mm 0.00 in0.0 mm 0.00 in0.0 mm
10:10 AM 63.1°F17.3°C 48.1°F8.9°C 58% 5.1 mph WSW8.2 kmh WSW 6.5 mph10.5 kmh 30.40 in1029.5 mb 0.00 in0.0 mm 0.00 in0.0 mm 0.00 in0.0 mm
10:15 AM 63.5°F17.5°C 48.4°F9.1°C 58% 4.7 mph WSW7.6 kmh WSW 6.9 mph11.1 kmh 30.40 in1029.5 mb 0.00 in0.0 mm 0.00 in0.0 mm 0.00 in0.0 mm
10:20 AM 63.8°F17.7°C 48.5°F9.2°C 58% 3.6 mph WSW5.8 kmh WSW 5.1 mph8.2 kmh 30.40 in1029.5 mb 0.00 in0.0 mm 0.00 in0.0 mm 0.00 in0.0 mm
10:25 AM 64.0°F17.8°C 48.4°F9.1°C 57% 3.5 mph WSW5.6 kmh WSW 5.4 mph8.7 kmh 30.41 in1029.8 mb 0.00 in0.0 mm 0.00 in0.0 mm 0.00 in0.0 mm
10:30 AM 64.1°F17.8°C 48.7°F9.3°C 57% 3.1 mph WSW5.0 kmh WSW 5.8 mph9.3 kmh 30.41 in1029.8 mb 0.00 in0.0 mm 0.00 in0.0 mm 0.00 in0.0 mm
10:35 AM 64.2°F17.9°C 49.6°F9.8°C 59% 3.3 mph WSW5.3 kmh WSW 5.1 mph8.2 kmh 30.41 in1029.8 mb 0.00 in0.0 mm 0.00 in0.0 mm 0.00 in0.0 mm
10:40 AM 64.5°F18.1°C 50.8°F10.4°C 61% 3.6 mph WSW5.8 kmh WSW 5.1 mph8.2 kmh 30.41 in1029.8 mb 0.00 in0.0 mm 0.00 in0.0 mm 0.00 in0.0 mm
10:45 AM 64.7°F18.2°C 50.0°F10.0°C 59% 3.1 mph W5.0 kmh W 3.6 mph5.8 kmh 30.41 in1029.8 mb 0.00 in0.0 mm 0.00 in0.0 mm 0.00 in0.0 mm
10:50 AM 65.0°F18.3°C 51.7°F10.9°C 62% 2.0 mph W3.2 kmh W 5.8 mph9.3 kmh 30.41 in1029.8 mb 0.00 in0.0 mm 0.00 in0.0 mm 0.00 in0.0 mm
10:55 AM 64.8°F18.2°C 52.8°F11.6°C 65% 2.3 mph WNW3.7 kmh WNW 5.4 mph8.7 kmh 30.41 in1029.8 mb 0.00 in0.0 mm 0.00 in0.0 mm 0.00 in0.0 mm
11:00 AM 64.7°F18.2°C 53.5°F11.9°C 67% 2.9 mph NNW4.7 kmh NNW 7.4 mph11.9 kmh 30.41 in1029.8 mb 0.00 in0.0 mm 0.00 in0.0 mm 0.00 in0.0 mm
11:05 AM 64.6°F18.1°C 53.4°F11.9°C 67% 3.1 mph NNW5.0 kmh NNW 6.5 mph10.5 kmh 30.41 in1029.8 mb 0.00 in0.0 mm 0.00 in0.0 mm 0.00 in0.0 mm
11:10 AM 64.4°F18.0°C 53.5°F11.9°C 68% 3.6 mph N5.8 kmh N 5.4 mph8.7 kmh 30.41 in1029.8 mb 0.00 in0.0 mm 0.00 in0.0 mm 0.00 in0.0 mm
11:15 AM 64.6°F18.1°C 53.8°F12.1°C 68% 3.5 mph NNW5.6 kmh NNW 6.5 mph10.5 kmh 30.41 in1029.8 mb 0.00 in0.0 mm 0.00 in0.0 mm 0.00 in0.0 mm
11:20 AM 64.8°F18.2°C 53.6°F12.0°C 67% 3.1 mph NW5.0 kmh NW 6.5 mph10.5 kmh 30.41 in1029.8 mb 0.00 in0.0 mm 0.00 in0.0 mm 0.00 in0.0 mm
11:25 AM 64.7°F18.2°C 53.4°F11.9°C 67% 3.1 mph NNW5.0 kmh NNW 5.4 mph8.7 kmh 30.41 in1029.8 mb 0.00 in0.0 mm 0.00 in0.0 mm 0.00 in0.0 mm
11:30 AM 64.6°F18.1°C 53.4°F11.9°C 67% 2.9 mph NE4.7 kmh NE 4.7 mph7.6 kmh 30.40 in1029.5 mb 0.00 in0.0 mm 0.00 in0.0 mm 0.00 in0.0 mm
11:35 AM 64.3°F17.9°C 53.3°F11.8°C 67% 2.8 mph NNE4.5 kmh NNE 5.4 mph8.7 kmh 30.40 in1029.5 mb 0.00 in0.0 mm 0.00 in0.0 mm 0.00 in0.0 mm
11:40 AM 64.3°F17.9°C 53.5°F11.9°C 68% 2.5 mph 4.0 kmh 5.4 mph8.7 kmh 30.40 in1029.5 mb 0.00 in0.0 mm 0.00 in0.0 mm 0.00 in0.0 mm
11:45 AM 64.4°F18.0°C 53.2°F11.8°C 67% 2.5 mph N4.0 kmh N 5.4 mph8.7 kmh 30.40 in1029.5 mb 0.00 in0.0 mm 0.00 in0.0 mm 0.00 in0.0 mm
11:50 AM 64.3°F17.9°C 53.0°F11.7°C 67% 2.5 mph NNE4.0 kmh NNE 5.1 mph8.2 kmh 30.40 in1029.5 mb 0.00 in0.0 mm 0.00 in0.0 mm 0.00 in0.0 mm
11:55 AM 64.0°F17.8°C 52.8°F11.6°C 67% 2.7 mph NE4.3 kmh NE 5.4 mph8.7 kmh 30.39 in1029.1 mb 0.00 in0.0 mm 0.00 in0.0 mm 0.00 in0.0 mm
12:00 PM 63.9°F17.7°C 53.1°F11.7°C 68% 3.1 mph NE5.0 kmh NE 5.1 mph8.2 kmh 30.39 in1029.1 mb 0.00 in0.0 mm 0.00 in0.0 mm 0.00 in0.0 mm
12:05 PM 63.9°F17.7°C 53.0°F11.7°C 68% 2.9 mph NE4.7 kmh NE 4.0 mph6.4 kmh 30.39 in1029.1 mb 0.00 in0.0 mm 0.00 in0.0 mm 0.00 in0.0 mm
12:10 PM 64.2°F17.9°C 52.7°F11.5°C 66% 2.5 mph E4.0 kmh E 5.1 mph8.2 kmh 30.39 in1029.1 mb 0.00 in0.0 mm 0.00 in0.0 mm 0.00 in0.0 mm
12:15 PM 64.6°F18.1°C 52.6°F11.4°C 65% 2.5 mph E4.0 kmh E 4.7 mph7.6 kmh 30.38 in1028.8 mb 0.00 in0.0 mm 0.00 in0.0 mm 0.00 in0.0 mm
12:20 PM 64.9°F18.3°C 52.6°F11.4°C 64% 2.5 mph E4.0 kmh E 5.8 mph9.3 kmh 30.38 in1028.8 mb 0.00 in0.0 mm 0.00 in0.0 mm 0.00 in0.0 mm
12:25 PM 65.3°F18.5°C 52.5°F11.4°C 63% 2.5 mph SE4.0 kmh SE 5.4 mph8.7 kmh 30.38 in1028.8 mb 0.00 in0.0 mm 0.00 in0.0 mm 0.00 in0.0 mm
12:30 PM 65.6°F18.7°C 52.6°F11.4°C 63% 2.5 mph S4.0 kmh S 5.4 mph8.7 kmh 30.38 in1028.8 mb 0.00 in0.0 mm 0.00 in0.0 mm 0.00 in0.0 mm
12:35 PM 65.7°F18.7°C 52.6°F11.4°C 63% 2.6 mph S4.2 kmh S 4.0 mph6.4 kmh 30.38 in1028.8 mb 0.00 in0.0 mm 0.00 in0.0 mm 0.00 in0.0 mm
12:40 PM 65.8°F18.8°C 52.6°F11.4°C 63% 2.9 mph SE4.7 kmh SE 5.1 mph8.2 kmh 30.37 in1028.4 mb 0.00 in0.0 mm 0.00 in0.0 mm 0.00 in0.0 mm
12:45 PM 66.0°F18.9°C 52.6°F11.4°C 62% 2.7 mph SE4.3 kmh SE 4.7 mph7.6 kmh 30.37 in1028.4 mb 0.00 in0.0 mm 0.00 in0.0 mm 0.00 in0.0 mm
12:50 PM 65.9°F18.8°C 52.2°F11.2°C 61% 2.0 mph S3.2 kmh S 6.9 mph11.1 kmh 30.37 in1028.4 mb 0.00 in0.0 mm 0.00 in0.0 mm 0.00 in0.0 mm
12:55 PM 65.5°F18.6°C 52.3°F11.3°C 62% 2.6 mph SE4.2 kmh SE 8.1 mph13.0 kmh 30.36 in1028.1 mb 0.00 in0.0 mm 0.00 in0.0 mm 0.00 in0.0 mm
01:00 PM 65.4°F18.6°C 52.6°F11.4°C 63% 4.0 mph ESE6.4 kmh ESE 5.4 mph8.7 kmh 30.36 in1028.1 mb 0.00 in0.0 mm 0.00 in0.0 mm 0.00 in0.0 mm
01:05 PM 65.9°F18.8°C 52.9°F11.6°C 63% 3.7 mph SE6.0 kmh SE 8.1 mph13.0 kmh 30.36 in1028.1 mb 0.00 in0.0 mm 0.00 in0.0 mm 0.00 in0.0 mm
01:10 PM 66.2°F19.0°C 52.5°F11.4°C 61% 2.9 mph S4.7 kmh S 6.5 mph10.5 kmh 30.36 in1028.1 mb 0.00 in0.0 mm 0.00 in0.0 mm 0.00 in0.0 mm
01:15 PM 66.0°F18.9°C 52.5°F11.4°C 62% 3.2 mph SSE5.1 kmh SSE 8.7 mph14.0 kmh 30.36 in1028.1 mb 0.00 in0.0 mm 0.00 in0.0 mm 0.00 in0.0 mm
01:20 PM 65.7°F18.7°C 52.2°F11.2°C 62% 4.0 mph SE6.4 kmh SE 10.1 mph16.3 kmh 30.36 in1028.1 mb 0.00 in0.0 mm 0.00 in0.0 mm 0.00 in0.0 mm
01:25 PM 65.5°F18.6°C 52.6°F11.4°C 63% 4.2 mph SE6.8 kmh SE 5.4 mph8.7 kmh 30.36 in1028.1 mb 0.00 in0.0 mm 0.00 in0.0 mm 0.00 in0.0 mm
01:30 PM 65.9°F18.8°C 52.9°F11.6°C 63% 4.7 mph SE7.6 kmh SE 6.5 mph10.5 kmh 30.35 in1027.8 mb 0.00 in0.0 mm 0.00 in0.0 mm 0.00 in0.0 mm
01:35 PM 66.5°F19.2°C 53.0°F11.7°C 62% 4.5 mph SE7.2 kmh SE 7.6 mph12.2 kmh 30.35 in1027.8 mb 0.00 in0.0 mm 0.00 in0.0 mm 0.00 in0.0 mm
01:40 PM 66.5°F19.2°C 53.1°F11.7°C 62% 4.0 mph SSW6.4 kmh SSW 7.4 mph11.9 kmh 30.35 in1027.8 mb 0.00 in0.0 mm 0.00 in0.0 mm 0.00 in0.0 mm
01:45 PM 65.4°F18.6°C 53.1°F11.7°C 64% 4.5 mph S7.2 kmh S 11.4 mph18.3 kmh 30.35 in1027.8 mb 0.00 in0.0 mm 0.00 in0.0 mm 0.00 in0.0 mm
01:50 PM 64.3°F17.9°C 53.3°F11.8°C 68% 5.8 mph E9.3 kmh E 10.1 mph16.3 kmh 30.35 in1027.8 mb 0.00 in0.0 mm 0.00 in0.0 mm 0.00 in0.0 mm
01:55 PM 64.4°F18.0°C 53.6°F12.0°C 68% 5.8 mph E9.3 kmh E 8.7 mph14.0 kmh 30.34 in1027.4 mb 0.00 in0.0 mm 0.00 in0.0 mm 0.00 in0.0 mm
02:00 PM 64.7°F18.2°C 53.7°F12.1°C 67% 5.8 mph E9.3 kmh E 8.7 mph14.0 kmh 30.34 in1027.4 mb 0.00 in0.0 mm 0.00 in0.0 mm 0.00 in0.0 mm
02:05 PM 65.0°F18.3°C 53.7°F12.1°C 67% 5.6 mph E9.0 kmh E 9.2 mph14.8 kmh 30.34 in1027.4 mb 0.00 in0.0 mm 0.00 in0.0 mm 0.00 in0.0 mm
02:10 PM 64.9°F18.3°C 53.7°F12.1°C 67% 5.1 mph SE8.2 kmh SE 8.7 mph14.0 kmh 30.34 in1027.4 mb 0.00 in0.0 mm 0.00 in0.0 mm 0.00 in0.0 mm
02:15 PM 64.9°F18.3°C 53.8°F12.1°C 67% 5.5 mph SE8.9 kmh SE 9.2 mph14.8 kmh 30.33 in1027.1 mb 0.00 in0.0 mm 0.00 in0.0 mm 0.00 in0.0 mm
02:20 PM 64.9°F18.3°C 53.7°F12.1°C 67% 6.5 mph SE10.5 kmh SE 8.1 mph13.0 kmh 30.33 in1027.1 mb 0.00 in0.0 mm 0.00 in0.0 mm 0.00 in0.0 mm
02:25 PM 65.2°F18.4°C 53.9°F12.2°C 67% 6.1 mph SE9.8 kmh SE 8.1 mph13.0 kmh 30.33 in1027.1 mb 0.00 in0.0 mm 0.00 in0.0 mm 0.00 in0.0 mm
02:30 PM 65.6°F18.7°C 54.0°F12.2°C 66% 5.1 mph S8.2 kmh S 9.2 mph14.8 kmh 30.33 in1027.1 mb 0.00 in0.0 mm 0.00 in0.0 mm 0.00 in0.0 mm
02:35 PM 65.6°F18.7°C 53.8°F12.1°C 66% 5.2 mph S8.4 kmh S 9.6 mph15.4 kmh 30.33 in1027.1 mb 0.00 in0.0 mm 0.00 in0.0 mm 0.00 in0.0 mm
02:40 PM 64.9°F18.3°C 53.6°F12.0°C 67% 5.4 mph S8.7 kmh S 13.4 mph21.6 kmh 30.32 in1026.8 mb 0.00 in0.0 mm 0.00 in0.0 mm 0.00 in0.0 mm
02:45 PM 64.8°F18.2°C 53.7°F12.1°C 67% 5.6 mph SE9.0 kmh SE 9.2 mph14.8 kmh 30.32 in1026.8 mb 0.00 in0.0 mm 0.00 in0.0 mm 0.00 in0.0 mm
02:50 PM 64.2°F17.9°C 53.3°F11.8°C 68% 6.3 mph E10.1 kmh E 11.2 mph18.0 kmh 30.32 in1026.8 mb 0.00 in0.0 mm 0.00 in0.0 mm 0.00 in0.0 mm
02:55 PM 64.0°F17.8°C 53.4°F11.9°C 68% 6.5 mph E10.5 kmh E 11.2 mph18.0 kmh 30.32 in1026.8 mb 0.00 in0.0 mm 0.00 in0.0 mm 0.00 in0.0 mm
03:00 PM 64.0°F17.8°C 53.7°F12.1°C 69% 6.9 mph E11.1 kmh E 8.1 mph13.0 kmh 30.32 in1026.8 mb 0.00 in0.0 mm 0.00 in0.0 mm 0.00 in0.0 mm
03:05 PM 64.4°F18.0°C 53.6°F12.0°C 68% 6.3 mph E10.1 kmh E 8.5 mph13.7 kmh 30.32 in1026.8 mb 0.00 in0.0 mm 0.00 in0.0 mm 0.00 in0.0 mm
03:10 PM 64.6°F18.1°C 53.4°F11.9°C 67% 4.7 mph ESE7.6 kmh ESE 9.2 mph14.8 kmh 30.32 in1026.8 mb 0.00 in0.0 mm 0.00 in0.0 mm 0.00 in0.0 mm
03:15 PM 64.3°F17.9°C 53.3°F11.8°C 67% 4.9 mph ESE7.9 kmh ESE 6.9 mph11.1 kmh 30.32 in1026.8 mb 0.00 in0.0 mm 0.00 in0.0 mm 0.00 in0.0 mm
03:20 PM 64.5°F18.1°C 53.3°F11.8°C 67% 5.4 mph ESE8.7 kmh ESE 8.7 mph14.0 kmh 30.32 in1026.8 mb 0.00 in0.0 mm 0.00 in0.0 mm 0.00 in0.0 mm
03:25 PM 64.3°F17.9°C 52.9°F11.6°C 66% 5.6 mph ESE9.0 kmh ESE 10.7 mph17.2 kmh 30.32 in1026.8 mb 0.00 in0.0 mm 0.00 in0.0 mm 0.00 in0.0 mm
03:30 PM 64.2°F17.9°C 53.0°F11.7°C 67% 6.3 mph SE10.1 kmh SE 9.6 mph15.4 kmh 30.32 in1026.8 mb 0.00 in0.0 mm 0.00 in0.0 mm 0.00 in0.0 mm
03:35 PM 64.1°F17.8°C 52.6°F11.4°C 66% 6.1 mph SE9.8 kmh SE 11.9 mph19.2 kmh 30.32 in1026.8 mb 0.00 in0.0 mm 0.00 in0.0 mm 0.00 in0.0 mm
03:40 PM 63.7°F17.6°C 52.1°F11.2°C 66% 5.8 mph ESE9.3 kmh ESE 10.7 mph17.2 kmh 30.31 in1026.4 mb 0.00 in0.0 mm 0.00 in0.0 mm 0.00 in0.0 mm
03:45 PM 63.5°F17.5°C 51.8°F11.0°C 66% 6.1 mph E9.8 kmh E 10.7 mph17.2 kmh 30.31 in1026.4 mb 0.00 in0.0 mm 0.00 in0.0 mm 0.00 in0.0 mm
03:50 PM 63.1°F17.3°C 51.2°F10.7°C 65% 6.9 mph E11.1 kmh E 12.3 mph19.8 kmh 30.31 in1026.4 mb 0.00 in0.0 mm 0.00 in0.0 mm 0.00 in0.0 mm
03:55 PM 62.8°F17.1°C 51.3°F10.7°C 66% 7.3 mph E11.7 kmh E 12.3 mph19.8 kmh 30.31 in1026.4 mb 0.00 in0.0 mm 0.00 in0.0 mm 0.00 in0.0 mm
04:00 PM 62.7°F17.1°C 51.5°F10.8°C 67% 8.1 mph ENE13.0 kmh ENE 11.4 mph18.3 kmh 30.31 in1026.4 mb 0.00 in0.0 mm 0.00 in0.0 mm 0.00 in0.0 mm
04:05 PM 62.5°F16.9°C 51.0°F10.6°C 66% 8.2 mph ENE13.2 kmh ENE 11.2 mph18.0 kmh 30.31 in1026.4 mb 0.00 in0.0 mm 0.00 in0.0 mm 0.00 in0.0 mm
04:10 PM 62.4°F16.9°C 50.9°F10.5°C 66% 8.5 mph ENE13.7 kmh ENE 10.1 mph16.3 kmh 30.31 in1026.4 mb 0.00 in0.0 mm 0.00 in0.0 mm 0.00 in0.0 mm
04:15 PM 62.4°F16.9°C 51.4°F10.8°C 67% 8.2 mph ENE13.2 kmh ENE 11.9 mph19.2 kmh 30.31 in1026.4 mb 0.00 in0.0 mm 0.00 in0.0 mm 0.00 in0.0 mm
04:20 PM 62.3°F16.8°C 51.6°F10.9°C 68% 7.6 mph ENE12.2 kmh ENE 10.7 mph17.2 kmh 30.31 in1026.4 mb 0.00 in0.0 mm 0.00 in0.0 mm 0.00 in0.0 mm
04:25 PM 62.1°F16.7°C 51.4°F10.8°C 68% 7.5 mph ENE12.1 kmh ENE 11.2 mph18.0 kmh 30.31 in1026.4 mb 0.00 in0.0 mm 0.00 in0.0 mm 0.00 in0.0 mm
04:30 PM 62.1°F16.7°C 51.4°F10.8°C 68% 7.4 mph ENE11.9 kmh ENE 8.7 mph14.0 kmh 30.31 in1026.4 mb 0.00 in0.0 mm 0.00 in0.0 mm 0.00 in0.0 mm
04:35 PM 62.1°F16.7°C 51.0°F10.6°C 67% 7.1 mph ENE11.4 kmh ENE 9.6 mph15.4 kmh 30.31 in1026.4 mb 0.00 in0.0 mm 0.00 in0.0 mm 0.00 in0.0 mm
04:40 PM 62.2°F16.8°C 51.1°F10.6°C 67% 6.5 mph ENE10.5 kmh ENE 8.1 mph13.0 kmh 30.31 in1026.4 mb 0.00 in0.0 mm 0.00 in0.0 mm 0.00 in0.0 mm
04:45 PM 62.2°F16.8°C 51.1°F10.6°C 67% 6.2 mph ENE10.0 kmh ENE 8.7 mph14.0 kmh 30.31 in1026.4 mb 0.00 in0.0 mm 0.00 in0.0 mm 0.00 in0.0 mm
04:50 PM 62.1°F16.7°C 51.0°F10.6°C 67% 5.4 mph ENE8.7 kmh ENE 9.6 mph15.4 kmh 30.31 in1026.4 mb 0.00 in0.0 mm 0.00 in0.0 mm 0.00 in0.0 mm
04:55 PM 61.9°F16.6°C 51.1°F10.6°C 68% 5.9 mph ENE9.5 kmh ENE 9.6 mph15.4 kmh 30.30 in1026.1 mb 0.00 in0.0 mm 0.00 in0.0 mm 0.00 in0.0 mm
05:00 PM 61.9°F16.6°C 51.2°F10.7°C 68% 7.4 mph ENE11.9 kmh ENE 7.4 mph11.9 kmh 30.30 in1026.1 mb 0.00 in0.0 mm 0.00 in0.0 mm 0.00 in0.0 mm
05:05 PM 61.8°F16.6°C 51.1°F10.6°C 68% 6.7 mph ENE10.8 kmh ENE 7.6 mph12.2 kmh 30.30 in1026.1 mb 0.00 in0.0 mm 0.00 in0.0 mm 0.00 in0.0 mm
05:10 PM 61.6°F16.4°C 51.0°F10.6°C 68% 5.1 mph ENE8.2 kmh ENE 7.6 mph12.2 kmh 30.30 in1026.1 mb 0.00 in0.0 mm 0.00 in0.0 mm 0.00 in0.0 mm
05:15 PM 61.5°F16.4°C 50.8°F10.4°C 68% 5.2 mph ENE8.4 kmh ENE 7.6 mph12.2 kmh 30.30 in1026.1 mb 0.00 in0.0 mm 0.00 in0.0 mm 0.00 in0.0 mm
05:20 PM 61.3°F16.3°C 50.6°F10.3°C 68% 5.4 mph ENE8.7 kmh ENE 7.6 mph12.2 kmh 30.30 in1026.1 mb 0.00 in0.0 mm 0.00 in0.0 mm 0.00 in0.0 mm
05:25 PM 61.2°F16.2°C 50.1°F10.1°C 67% 5.7 mph ENE9.2 kmh ENE 8.5 mph13.7 kmh 30.30 in1026.1 mb 0.00 in0.0 mm 0.00 in0.0 mm 0.00 in0.0 mm
05:30 PM 61.0°F16.1°C 49.9°F9.9°C 67% 6.5 mph ENE10.5 kmh ENE 9.6 mph15.4 kmh 30.30 in1026.1 mb 0.00 in0.0 mm 0.00 in0.0 mm 0.00 in0.0 mm
05:35 PM 60.8°F16.0°C 50.0°F10.0°C 67% 6.6 mph ENE10.6 kmh ENE 8.7 mph14.0 kmh 30.30 in1026.1 mb 0.00 in0.0 mm 0.00 in0.0 mm 0.00 in0.0 mm
05:40 PM 60.6°F15.9°C 50.5°F10.3°C 69% 6.9 mph ENE11.1 kmh ENE 7.6 mph12.2 kmh 30.31 in1026.4 mb 0.00 in0.0 mm 0.00 in0.0 mm 0.00 in0.0 mm
05:45 PM 60.4°F15.8°C 50.9°F10.5°C 71% 6.7 mph ENE10.8 kmh ENE 8.1 mph13.0 kmh 30.31 in1026.4 mb 0.00 in0.0 mm 0.00 in0.0 mm 0.00 in0.0 mm
05:50 PM 60.2°F15.7°C 51.4°F10.8°C 73% 6.3 mph ENE10.1 kmh ENE 7.6 mph12.2 kmh 30.31 in1026.4 mb 0.00 in0.0 mm 0.00 in0.0 mm 0.00 in0.0 mm
05:55 PM 60.1°F15.6°C 51.5°F10.8°C 73% 6.3 mph ENE10.1 kmh ENE 7.4 mph11.9 kmh 30.31 in1026.4 mb 0.00 in0.0 mm 0.00 in0.0 mm 0.00 in0.0 mm
06:00 PM 60.0°F15.6°C 51.7°F10.9°C 74% 6.3 mph ENE10.1 kmh ENE 8.1 mph13.0 kmh 30.31 in1026.4 mb 0.00 in0.0 mm 0.00 in0.0 mm 0.00 in0.0 mm
06:05 PM 59.8°F15.4°C 51.5°F10.8°C 74% 5.9 mph ENE9.5 kmh ENE 6.9 mph11.1 kmh 30.31 in1026.4 mb 0.00 in0.0 mm 0.00 in0.0 mm 0.00 in0.0 mm
06:10 PM 59.7°F15.4°C 51.7°F10.9°C 75% 5.1 mph ENE8.2 kmh ENE 7.4 mph11.9 kmh 30.32 in1026.8 mb 0.00 in0.0 mm 0.00 in0.0 mm 0.00 in0.0 mm
06:15 PM 59.6°F15.3°C 51.7°F10.9°C 75% 5.0 mph NE8.0 kmh NE 7.6 mph12.2 kmh 30.32 in1026.8 mb 0.00 in0.0 mm 0.00 in0.0 mm 0.00 in0.0 mm
06:20 PM 59.5°F15.3°C 51.9°F11.1°C 76% 4.7 mph NE7.6 kmh NE 6.3 mph10.1 kmh 30.32 in1026.8 mb 0.00 in0.0 mm 0.00 in0.0 mm 0.00 in0.0 mm
06:25 PM 59.4°F15.2°C 51.8°F11.0°C 76% 4.5 mph NE7.2 kmh NE 5.8 mph9.3 kmh 30.32 in1026.8 mb 0.00 in0.0 mm 0.00 in0.0 mm 0.00 in0.0 mm
06:30 PM 59.2°F15.1°C 51.6°F10.9°C 76% 4.0 mph NE6.4 kmh NE 6.3 mph10.1 kmh 30.32 in1026.8 mb 0.00 in0.0 mm 0.00 in0.0 mm 0.00 in0.0 mm
06:35 PM 59.1°F15.1°C 51.5°F10.8°C 76% 4.1 mph NE6.6 kmh NE 6.3 mph10.1 kmh 30.32 in1026.8 mb 0.00 in0.0 mm 0.00 in0.0 mm 0.00 in0.0 mm
06:40 PM 59.0°F15.0°C 51.7°F10.9°C 77% 4.3 mph NE6.9 kmh NE 7.4 mph11.9 kmh 30.32 in1026.8 mb 0.00 in0.0 mm 0.00 in0.0 mm 0.00 in0.0 mm
06:45 PM 59.0°F15.0°C 51.8°F11.0°C 77% 4.5 mph NE7.2 kmh NE 6.5 mph10.5 kmh 30.32 in1026.8 mb 0.00 in0.0 mm 0.00 in0.0 mm 0.00 in0.0 mm
06:50 PM 58.9°F14.9°C 51.7°F10.9°C 77% 5.1 mph NE8.2 kmh NE 6.5 mph10.5 kmh 30.32 in1026.8 mb 0.00 in0.0 mm 0.00 in0.0 mm 0.00 in0.0 mm
06:55 PM 58.8°F14.9°C 51.7°F10.9°C 77% 5.0 mph NE8.0 kmh NE 6.3 mph10.1 kmh 30.32 in1026.8 mb 0.00 in0.0 mm 0.00 in0.0 mm 0.00 in0.0 mm
07:00 PM 58.6°F14.8°C 51.8°F11.0°C 78% 4.7 mph NE7.6 kmh NE 6.5 mph10.5 kmh 30.32 in1026.8 mb 0.00 in0.0 mm 0.00 in0.0 mm 0.00 in0.0 mm
07:05 PM 58.5°F14.7°C 51.6°F10.9°C 78% 4.6 mph NNE7.4 kmh NNE 6.3 mph10.1 kmh 30.32 in1026.8 mb 0.00 in0.0 mm 0.00 in0.0 mm 0.00 in0.0 mm
07:10 PM 58.5°F14.7°C 51.6°F10.9°C 78% 4.3 mph NNE6.9 kmh NNE 4.7 mph7.6 kmh 30.32 in1026.8 mb 0.00 in0.0 mm 0.00 in0.0 mm 0.00 in0.0 mm
07:15 PM 58.5°F14.7°C 51.6°F10.9°C 78% 3.9 mph NNE6.3 kmh NNE 5.4 mph8.7 kmh 30.32 in1026.8 mb 0.00 in0.0 mm 0.00 in0.0 mm 0.00 in0.0 mm
07:20 PM 58.5°F14.7°C 51.6°F10.9°C 78% 3.1 mph NNE5.0 kmh NNE 5.4 mph8.7 kmh 30.32 in1026.8 mb 0.00 in0.0 mm 0.00 in0.0 mm 0.00 in0.0 mm
07:25 PM 58.3°F14.6°C 51.5°F10.8°C 78% 3.1 mph NNE5.0 kmh NNE 4.7 mph7.6 kmh 30.32 in1026.8 mb 0.00 in0.0 mm 0.00 in0.0 mm 0.00 in0.0 mm
07:30 PM 58.3°F14.6°C 51.4°F10.8°C 78% 3.1 mph N5.0 kmh N 4.7 mph7.6 kmh 30.32 in1026.8 mb 0.00 in0.0 mm 0.00 in0.0 mm 0.00 in0.0 mm
07:35 PM 58.3°F14.6°C 51.4°F10.8°C 78% 3.1 mph N5.0 kmh N 6.3 mph10.1 kmh 30.32 in1026.8 mb 0.00 in0.0 mm 0.00 in0.0 mm 0.00 in0.0 mm
07:40 PM 58.3°F14.6°C 51.4°F10.8°C 78% 3.1 mph NNE5.0 kmh NNE 6.3 mph10.1 kmh 30.32 in1026.8 mb 0.00 in0.0 mm 0.00 in0.0 mm 0.00 in0.0 mm
07:45 PM 58.3°F14.6°C 51.4°F10.8°C 78% 3.5 mph NNE5.6 kmh NNE 4.7 mph7.6 kmh 30.32 in1026.8 mb 0.00 in0.0 mm 0.00 in0.0 mm 0.00 in0.0 mm
07:50 PM 58.2°F14.6°C 51.4°F10.8°C 78% 4.3 mph NNE6.9 kmh NNE 5.8 mph9.3 kmh 30.32 in1026.8 mb 0.00 in0.0 mm 0.00 in0.0 mm 0.00 in0.0 mm
07:55 PM 58.0°F14.4°C 51.2°F10.7°C 78% 4.2 mph NNE6.8 kmh NNE 5.4 mph8.7 kmh 30.32 in1026.8 mb 0.00 in0.0 mm 0.00 in0.0 mm 0.00 in0.0 mm
08:00 PM 57.9°F14.4°C 51.1°F10.6°C 78% 4.0 mph N6.4 kmh N 5.4 mph8.7 kmh 30.32 in1026.8 mb 0.00 in0.0 mm 0.00 in0.0 mm 0.00 in0.0 mm
08:05 PM 57.8°F14.3°C 51.0°F10.6°C 78% 3.9 mph N6.3 kmh N 5.4 mph8.7 kmh 30.32 in1026.8 mb 0.00 in0.0 mm 0.00 in0.0 mm 0.00 in0.0 mm
08:10 PM 57.7°F14.3°C 50.9°F10.5°C 78% 3.6 mph 5.8 kmh 5.8 mph9.3 kmh 30.33 in1027.1 mb 0.00 in0.0 mm 0.00 in0.0 mm 0.00 in0.0 mm
08:15 PM 57.7°F14.3°C 50.9°F10.5°C 78% 3.6 mph N5.8 kmh N 5.4 mph8.7 kmh 30.33 in1027.1 mb 0.00 in0.0 mm 0.00 in0.0 mm 0.00 in0.0 mm
08:20 PM 57.7°F14.3°C 50.9°F10.5°C 78% 3.6 mph N5.8 kmh N 5.8 mph9.3 kmh 30.33 in1027.1 mb 0.00 in0.0 mm 0.00 in0.0 mm 0.00 in0.0 mm
08:25 PM 57.7°F14.3°C 50.9°F10.5°C 78% 3.7 mph N6.0 kmh N 5.8 mph9.3 kmh 30.33 in1027.1 mb 0.00 in0.0 mm 0.00 in0.0 mm 0.00 in0.0 mm
08:30 PM 57.7°F14.3°C 50.9°F10.5°C 78% 4.0 mph NNW6.4 kmh NNW 6.3 mph10.1 kmh 30.33 in1027.1 mb 0.00 in0.0 mm 0.00 in0.0 mm 0.00 in0.0 mm
08:35 PM 57.7°F14.3°C 50.9°F10.5°C 78% 4.1 mph NNW6.6 kmh NNW 5.8 mph9.3 kmh 30.33 in1027.1 mb 0.00 in0.0 mm 0.00 in0.0 mm 0.00 in0.0 mm
08:40 PM 57.7°F14.3°C 50.9°F10.5°C 78% 4.3 mph NW6.9 kmh NW 6.5 mph10.5 kmh 30.32 in1026.8 mb 0.00 in0.0 mm 0.00 in0.0 mm 0.00 in0.0 mm
08:45 PM 57.7°F14.3°C 50.9°F10.5°C 78% 4.3 mph NW6.9 kmh NW 6.3 mph10.1 kmh 30.32 in1026.8 mb 0.00 in0.0 mm 0.00 in0.0 mm 0.00 in0.0 mm
08:50 PM 57.7°F14.3°C 50.9°F10.5°C 78% 4.3 mph NW6.9 kmh NW 6.5 mph10.5 kmh 30.32 in1026.8 mb 0.00 in0.0 mm 0.00 in0.0 mm 0.00 in0.0 mm
08:55 PM 57.8°F14.3°C 50.6°F10.3°C 77% 4.4 mph NW7.1 kmh NW 7.4 mph11.9 kmh 30.32 in1026.8 mb 0.00 in0.0 mm 0.00 in0.0 mm 0.00 in0.0 mm
09:00 PM 57.8°F14.3°C 50.6°F10.3°C 77% 4.7 mph NW7.6 kmh NW 5.4 mph8.7 kmh 30.32 in1026.8 mb 0.00 in0.0 mm 0.00 in0.0 mm 0.00 in0.0 mm
09:05 PM 57.8°F14.3°C 50.6°F10.3°C 77% 4.5 mph NW7.2 kmh NW 5.1 mph8.2 kmh 30.32 in1026.8 mb 0.00 in0.0 mm 0.00 in0.0 mm 0.00 in0.0 mm
09:10 PM 57.7°F14.3°C 50.6°F10.3°C 77% 4.0 mph WNW6.4 kmh WNW 4.7 mph7.6 kmh 30.33 in1027.1 mb 0.00 in0.0 mm 0.00 in0.0 mm 0.00 in0.0 mm
09:15 PM 57.7°F14.3°C 50.6°F10.3°C 77% 3.8 mph WNW6.1 kmh WNW 4.7 mph7.6 kmh 30.33 in1027.1 mb 0.00 in0.0 mm 0.00 in0.0 mm 0.00 in0.0 mm
09:20 PM 57.7°F14.3°C 50.5°F10.3°C 77% 3.1 mph NW5.0 kmh NW 4.3 mph6.9 kmh 30.33 in1027.1 mb 0.00 in0.0 mm 0.00 in0.0 mm 0.00 in0.0 mm
09:25 PM 57.6°F14.2°C 50.6°F10.3°C 78% 3.1 mph WNW5.0 kmh WNW 4.7 mph7.6 kmh 30.32 in1026.8 mb 0.00 in0.0 mm 0.00 in0.0 mm 0.00 in0.0 mm
09:30 PM 57.6°F14.2°C 50.5°F10.3°C 77% 3.1 mph WNW5.0 kmh WNW 5.1 mph8.2 kmh 30.32 in1026.8 mb 0.00 in0.0 mm 0.00 in0.0 mm 0.00 in0.0 mm
09:35 PM 57.5°F14.2°C 50.3°F10.2°C 77% 3.5 mph W5.6 kmh W 6.5 mph10.5 kmh 30.32 in1026.8 mb 0.00 in0.0 mm 0.00 in0.0 mm 0.00 in0.0 mm
09:40 PM 57.4°F14.1°C 50.2°F10.1°C 77% 4.3 mph W6.9 kmh W 6.5 mph10.5 kmh 30.32 in1026.8 mb 0.00 in0.0 mm 0.00 in0.0 mm 0.00 in0.0 mm
09:45 PM 57.1°F13.9°C 50.0°F10.0°C 77% 4.6 mph W7.4 kmh W 7.4 mph11.9 kmh 30.32 in1026.8 mb 0.00 in0.0 mm 0.00 in0.0 mm 0.00 in0.0 mm
09:50 PM 57.0°F13.9°C 49.9°F9.9°C 77% 5.4 mph W8.7 kmh W 10.1 mph16.3 kmh 30.32 in1026.8 mb 0.00 in0.0 mm 0.00 in0.0 mm 0.00 in0.0 mm
09:55 PM 56.8°F13.8°C 49.7°F9.8°C 77% 5.7 mph W9.2 kmh W 8.5 mph13.7 kmh 30.32 in1026.8 mb 0.00 in0.0 mm 0.00 in0.0 mm 0.00 in0.0 mm
10:00 PM 56.8°F13.8°C 49.9°F9.9°C 78% 6.5 mph W10.5 kmh W 7.6 mph12.2 kmh 30.32 in1026.8 mb 0.00 in0.0 mm 0.00 in0.0 mm 0.00 in0.0 mm
10:05 PM 56.8°F13.8°C 49.9°F9.9°C 78% 6.3 mph WNW10.1 kmh WNW 7.4 mph11.9 kmh 30.32 in1026.8 mb 0.00 in0.0 mm 0.00 in0.0 mm 0.00 in0.0 mm
10:10 PM 56.7°F13.7°C 49.5°F9.7°C 77% 5.8 mph WNW9.3 kmh WNW 6.9 mph11.1 kmh 30.32 in1026.8 mb 0.00 in0.0 mm 0.00 in0.0 mm 0.00 in0.0 mm
10:15 PM 56.5°F13.6°C 49.4°F9.7°C 77% 5.6 mph WNW9.0 kmh WNW 5.8 mph9.3 kmh 30.32 in1026.8 mb 0.00 in0.0 mm 0.00 in0.0 mm 0.00 in0.0 mm
10:20 PM 56.3°F13.5°C 49.1°F9.5°C 77% 5.1 mph W8.2 kmh W 6.9 mph11.1 kmh 30.32 in1026.8 mb 0.00 in0.0 mm 0.00 in0.0 mm 0.00 in0.0 mm
10:25 PM 56.1°F13.4°C 49.3°F9.6°C 78% 5.2 mph W8.4 kmh W 6.3 mph10.1 kmh 30.32 in1026.8 mb 0.00 in0.0 mm 0.00 in0.0 mm 0.00 in0.0 mm
10:30 PM 55.9°F13.3°C 49.1°F9.5°C 78% 5.4 mph W8.7 kmh W 8.1 mph13.0 kmh 30.32 in1026.8 mb 0.00 in0.0 mm 0.00 in0.0 mm 0.00 in0.0 mm
10:35 PM 55.7°F13.2°C 49.0°F9.4°C 78% 5.6 mph W9.0 kmh W 8.7 mph14.0 kmh 30.32 in1026.8 mb 0.00 in0.0 mm 0.00 in0.0 mm 0.00 in0.0 mm
10:40 PM 55.6°F13.1°C 48.8°F9.3°C 78% 6.3 mph W10.1 kmh W 7.6 mph12.2 kmh 30.32 in1026.8 mb 0.00 in0.0 mm 0.00 in0.0 mm 0.00 in0.0 mm
10:45 PM 55.6°F13.1°C 48.8°F9.3°C 78% 6.3 mph W10.1 kmh W 8.1 mph13.0 kmh 30.32 in1026.8 mb 0.00 in0.0 mm 0.00 in0.0 mm 0.00 in0.0 mm
10:50 PM 55.4°F13.0°C 48.7°F9.3°C 78% 6.3 mph W10.1 kmh W 7.6 mph12.2 kmh 30.32 in1026.8 mb 0.00 in0.0 mm 0.00 in0.0 mm 0.00 in0.0 mm
10:55 PM 55.4°F13.0°C 49.0°F9.4°C 79% 6.3 mph W10.1 kmh W 8.1 mph13.0 kmh 30.31 in1026.4 mb 0.00 in0.0 mm 0.00 in0.0 mm 0.00 in0.0 mm
11:00 PM 55.3°F12.9°C 48.9°F9.4°C 79% 6.3 mph W10.1 kmh W 7.6 mph12.2 kmh 30.31 in1026.4 mb 0.00 in0.0 mm 0.00 in0.0 mm 0.00 in0.0 mm
11:05 PM 55.3°F12.9°C 48.9°F9.4°C 79% 6.3 mph W10.1 kmh W 6.9 mph11.1 kmh 30.31 in1026.4 mb 0.00 in0.0 mm 0.00 in0.0 mm 0.00 in0.0 mm
11:10 PM 55.2°F12.9°C 48.8°F9.3°C 79% 6.3 mph W10.1 kmh W 8.1 mph13.0 kmh 30.31 in1026.4 mb 0.00 in0.0 mm 0.00 in0.0 mm 0.00 in0.0 mm
11:15 PM 55.2°F12.9°C 48.8°F9.3°C 79% 6.3 mph W10.1 kmh W 8.5 mph13.7 kmh 30.31 in1026.4 mb 0.00 in0.0 mm 0.00 in0.0 mm 0.00 in0.0 mm
11:20 PM 55.1°F12.8°C 48.7°F9.3°C 79% 6.3 mph W10.1 kmh W 8.1 mph13.0 kmh 30.31 in1026.4 mb 0.00 in0.0 mm 0.00 in0.0 mm 0.00 in0.0 mm
11:25 PM 55.0°F12.8°C 48.6°F9.2°C 79% 6.1 mph W9.8 kmh W 6.9 mph11.1 kmh 30.31 in1026.4 mb 0.00 in0.0 mm 0.00 in0.0 mm 0.00 in0.0 mm
11:30 PM 55.0°F12.8°C 48.6°F9.2°C 79% 5.8 mph WNW9.3 kmh WNW 7.6 mph12.2 kmh 30.31 in1026.4 mb 0.00 in0.0 mm 0.00 in0.0 mm 0.00 in0.0 mm
11:35 PM 54.9°F12.7°C 48.5°F9.2°C 79% 5.8 mph W9.3 kmh W 7.4 mph11.9 kmh 30.31 in1026.4 mb 0.00 in0.0 mm 0.00 in0.0 mm 0.00 in0.0 mm
11:40 PM 54.8°F12.7°C 48.4°F9.1°C 79% 5.8 mph W9.3 kmh W 6.9 mph11.1 kmh 30.31 in1026.4 mb 0.00 in0.0 mm 0.00 in0.0 mm 0.00 in0.0 mm
11:45 PM 54.7°F12.6°C 48.5°F9.2°C 79% 5.9 mph W9.5 kmh W 7.6 mph12.2 kmh 30.31 in1026.4 mb 0.00 in0.0 mm 0.00 in0.0 mm 0.00 in0.0 mm
11:50 PM 54.7°F12.6°C 48.6°F9.2°C 80% 6.3 mph W10.1 kmh W 6.9 mph11.1 kmh 30.31 in1026.4 mb 0.00 in0.0 mm 0.00 in0.0 mm 0.00 in0.0 mm
11:55 PM 54.5°F12.5°C 48.5°F9.2°C 80% 6.1 mph W9.8 kmh W 7.6 mph12.2 kmh 30.31 in1026.4 mb 0.00 in0.0 mm 0.00 in0.0 mm 0.00 in0.0 mm